| time (UTC) | temp F | wind direction | speed knots | gust knots | rain 1hr in | rain 24hr in | rain mn in | humidity % | barometer mb |
| 20260510164511 | 85 | 87 | 5.2 | 7.8 | 0.00 | 0.00 | 0.00 | 71 | 1013.1 |
| 20260510164011 | 85 | 83 | 5.2 | 10.4 | 0.00 | 0.00 | 0.00 | 69 | 1013.1 |
| 20260510163512 | 85 | 95 | 7.8 | 10.4 | 0.00 | 0.00 | 0.00 | 70 | 1013.1 |
| 20260510163012 | 86 | 86 | 6.1 | 11.3 | 0.00 | 0.00 | 0.00 | 68 | 1013.1 |
| 20260510162012 | 85 | 85 | 8.7 | 12.2 | 0.00 | 0.00 | 0.00 | 69 | 1013.1 |
| 20260510161511 | 86 | 58 | 7.8 | 11.3 | 0.00 | 0.00 | 0.00 | 70 | 1013.1 |
| 20260510161011 | 86 | 79 | 7.0 | 12.2 | 0.00 | 0.00 | 0.00 | 71 | 1013.1 |
| 20260510160511 | 85 | 70 | 7.8 | 11.3 | 0.00 | 0.00 | 0.00 | 70 | 1013.1 |
| 20260510160011 | 85 | 79 | 4.3 | 10.4 | 0.00 | 0.00 | 0.00 | 72 | 1013.0 |
| 20260510155511 | 85 | 71 | 7.8 | 10.4 | 0.00 | 0.00 | 0.00 | 71 | 1013.1 |
| 20260510155012 | 83 | 49 | 2.6 | 6.1 | 0.00 | 0.00 | 0.00 | 78 | 1013.1 |
| 20260510154511 | 83 | 109 | 6.1 | 7.0 | 0.00 | 0.00 | 0.00 | 80 | 1013.1 |
| 20260510154011 | 82 | 87 | 7.0 | 10.4 | 0.00 | 0.00 | 0.00 | 79 | 1013.1 |
| 20260510153511 | 83 | 54 | 7.8 | 11.3 | 0.00 | 0.00 | 0.00 | 75 | 1013.0 |
| 20260510153011 | 83 | 86 | 5.2 | 8.7 | 0.00 | 0.00 | 0.00 | 79 | 1013.0 |
| 20260510152011 | 83 | 72 | 5.2 | 7.8 | 0.00 | 0.00 | 0.00 | 78 | 1013.1 |
| 20260510151510 | 83 | 55 | 5.2 | 7.0 | 0.00 | 0.00 | 0.00 | 81 | 1013.1 |
| 20260510151010 | 80 | 105 | 4.3 | 7.0 | 0.00 | 0.00 | 0.00 | 81 | 1013.1 |
| 20260510150511 | 80 | 115 | 4.3 | 6.1 | 0.00 | 0.00 | 0.00 | 82 | 1013.1 |
| 20260510150010 | 80 | 131 | 4.3 | 6.1 | 0.00 | 0.00 | 0.00 | 86 | 1013.0 |
| 20260510145011 | 80 | 99 | 6.1 | 8.7 | 0.00 | 0.00 | 0.00 | 86 | 1012.9 |
| 20260510144510 | 81 | 81 | 3.5 | 7.8 | 0.00 | 0.00 | 0.00 | 88 | 1012.9 |
| 20260510144011 | 79 | 83 | 5.2 | 7.8 | 0.00 | 0.00 | 0.00 | 90 | 1012.8 |
| 20260510142510 | 78 | 79 | 4.3 | 7.0 | 0.00 | 0.00 | 0.00 | 94 | 1012.7 |
| 20260510142011 | 77 | 63 | 4.3 | 6.1 | 0.00 | 0.00 | 0.00 | 95 | 1012.6 |
| 20260510140009 | 76 | 90 | 5.2 | 7.0 | 0.00 | 0.01 | 0.00 | 99 | 1012.3 |
| 20260510135509 | 76 | 89 | 5.2 | 7.0 | 0.00 | 0.01 | 0.00 | 99 | 1012.2 |
| 20260510135010 | 76 | 99 | 3.5 | 5.2 | 0.00 | 0.01 | 0.00 | 100 | 1012.1 |
| 20260510134512 | 75 | 99 | 5.2 | 6.1 | 0.00 | 0.01 | 0.00 | 100 | 1012.0 |
| 20260510134009 | 75 | 95 | 2.6 | 5.2 | 0.00 | 0.01 | 0.00 | 100 | 1012.0 |
| 20260510133509 | 74 | 78 | 3.5 | 4.3 | 0.00 | 0.01 | 0.00 | 100 | 1011.9 |
| 20260510133009 | 74 | 97 | 1.7 | 2.6 | 0.00 | 0.01 | 0.00 | 100 | 1011.9 |
| 20260510132510 | 73 | 65 | 1.7 | 2.6 | 0.00 | 0.01 | 0.00 | 100 | 1011.9 |
| 20260510132010 | 73 | 90 | 1.7 | 4.3 | 0.00 | 0.01 | 0.00 | 100 | 1011.8 |
| 20260510131509 | 73 | 74 | 1.7 | 2.6 | 0.00 | 0.01 | 0.00 | 99 | 1011.7 |
| 20260510131009 | 73 | 74 | 0.9 | 2.6 | 0.00 | 0.01 | 0.00 | 99 | 1011.5 |
| 20260510130009 | 72 | 74 | 0.9 | 2.6 | 0.00 | 0.01 | 0.00 | 99 | 1011.3 |
| 20260510125509 | 71 | 27 | 0.0 | 1.7 | 0.00 | 0.01 | 0.00 | 99 | 1011.2 |
| 20260510125009 | 71 | 26 | 0.9 | 2.6 | 0.00 | 0.01 | 0.00 | 99 | 1011.1 |
| 20260510124008 | 71 | 26 | 1.7 | 2.6 | 0.00 | 0.01 | 0.00 | 99 | 1011.0 |
| 20260510123508 | 70 | 26 | 0.9 | 1.7 | 0.00 | 0.01 | 0.00 | 99 | 1011.0 |
| 20260510122509 | 69 | 26 | 0.9 | 1.7 | 0.00 | 0.02 | 0.00 | 99 | 1011.1 |
| 20260510121508 | 68 | 26 | 0.9 | 1.7 | 0.00 | 0.04 | 0.00 | 99 | 1011.1 |
| 20260510121008 | 68 | 26 | 1.7 | 2.6 | 0.00 | 0.04 | 0.00 | 99 | 1011.0 |
| 20260510120508 | 67 | 26 | 0.9 | 2.6 | 0.00 | 0.05 | 0.00 | 99 | 1010.9 |
| 20260510114508 | 66 | 26 | 1.7 | 1.7 | 0.00 | 0.09 | 0.00 | 99 | 1010.7 |
| 20260510114008 | 67 | 26 | 0.9 | 1.7 | 0.00 | 0.09 | 0.00 | 99 | 1010.6 |
| 20260510113509 | 68 | 26 | 0.9 | 1.7 | 0.00 | 0.09 | 0.00 | 99 | 1010.5 |
| 20260510113008 | 68 | 26 | 0.9 | 1.7 | 0.00 | 0.10 | 0.00 | 99 | 1010.5 |
| 20260510112507 | 67 | 26 | 1.7 | 4.3 | 0.00 | 0.10 | 0.00 | 99 | 1010.4 |
| 20260510112008 | 67 | 24 | 2.6 | 4.3 | 0.00 | 0.10 | 0.00 | 99 | 1010.5 |
| 20260510111507 | 66 | 80 | 1.7 | 2.6 | 0.00 | 0.10 | 0.00 | 99 | 1010.5 |
| 20260510111008 | 66 | 171 | 0.9 | 1.7 | 0.00 | 0.10 | 0.00 | 99 | 1010.4 |
| 20260510110508 | 67 | 171 | 0.0 | 0.0 | 0.00 | 0.10 | 0.00 | 99 | 1010.3 |
| 20260510110008 | 67 | 171 | 0.0 | 0.0 | 0.00 | 0.10 | 0.00 | 99 | 1010.3 |
| 20260510105507 | 66 | 171 | 0.0 | 0.0 | 0.00 | 0.10 | 0.00 | 98 | 1010.3 |
| 20260510104008 | 67 | 171 | 0.0 | 0.0 | 0.00 | 0.10 | 0.00 | 99 | 1010.3 |
| 20260510103507 | 67 | 171 | 0.0 | 0.9 | 0.00 | 0.10 | 0.00 | 99 | 1010.3 |
| 20260510103007 | 67 | 171 | 0.0 | 0.9 | 0.00 | 0.10 | 0.00 | 99 | 1010.2 |
| 20260510102507 | 67 | 171 | 0.0 | 0.9 | 0.00 | 0.10 | 0.00 | 99 | 1010.3 |
| 20260510102008 | 67 | 171 | 0.0 | 1.7 | 0.00 | 0.10 | 0.00 | 98 | 1010.3 |
| 20260510101506 | 67 | 171 | 0.9 | 2.6 | 0.00 | 0.10 | 0.00 | 98 | 1010.3 |
| 20260510101008 | 67 | 171 | 1.7 | 2.6 | 0.00 | 0.10 | 0.00 | 98 | 1010.2 |
| 20260510100507 | 67 | 159 | 1.7 | 2.6 | 0.00 | 0.10 | 0.00 | 98 | 1010.2 |
| 20260510100007 | 67 | 159 | 0.9 | 2.6 | 0.00 | 0.10 | 0.00 | 98 | 1010.2 |
| 20260510095507 | 66 | 159 | 0.0 | 0.9 | 0.00 | 0.10 | 0.00 | 98 | 1010.2 |
| 20260510095006 | 66 | 159 | 0.0 | 0.9 | 0.00 | 0.10 | 0.00 | 98 | 1010.2 |
| 20260510094506 | 67 | 159 | 0.0 | 0.9 | 0.00 | 0.10 | 0.00 | 98 | 1010.2 |
| 20260510094007 | 68 | 159 | 0.0 | 0.9 | 0.00 | 0.10 | 0.00 | 98 | 1010.2 |
| 20260510093508 | 68 | 159 | 0.0 | 1.7 | 0.00 | 0.10 | 0.00 | 98 | 1010.1 |
| 20260510093006 | 68 | 159 | 0.9 | 1.7 | 0.00 | 0.10 | 0.00 | 98 | 1010.2 |
| 20260510092506 | 68 | 159 | 0.9 | 1.7 | 0.00 | 0.10 | 0.00 | 98 | 1010.2 |
| 20260510092006 | 68 | 159 | 0.9 | 1.7 | 0.00 | 0.10 | 0.00 | 98 | 1010.2 |
| 20260510091506 | 67 | 159 | 0.0 | 0.9 | 0.00 | 0.10 | 0.00 | 98 | 1010.2 |
| 20260510090507 | 68 | 159 | 0.0 | 0.9 | 0.00 | 0.10 | 0.00 | 98 | 1010.3 |
| 20260510090006 | 68 | 159 | 0.0 | 0.9 | 0.00 | 0.10 | 0.00 | 98 | 1010.3 |
| 20260510085506 | 67 | 159 | 0.9 | 1.7 | 0.00 | 0.10 | 0.00 | 98 | 1010.3 |
| 20260510085006 | 67 | 159 | 0.0 | 0.9 | 0.00 | 0.10 | 0.00 | 98 | 1010.4 |
| 20260510084506 | 67 | 159 | 0.0 | 0.9 | 0.00 | 0.10 | 0.00 | 98 | 1010.4 |
| 20260510084006 | 67 | 159 | 0.9 | 1.7 | 0.00 | 0.10 | 0.00 | 98 | 1010.3 |
| 20260510083506 | 67 | 159 | 0.9 | 1.7 | 0.00 | 0.10 | 0.00 | 98 | 1010.3 |
| 20260510083006 | 67 | 159 | 0.0 | 1.7 | 0.00 | 0.10 | 0.00 | 98 | 1010.2 |
| 20260510082505 | 68 | 163 | 1.7 | 4.3 | 0.00 | 0.10 | 0.00 | 98 | 1010.2 |
| 20260510082005 | 68 | 186 | 1.7 | 2.6 | 0.00 | 0.10 | 0.00 | 98 | 1010.2 |
| 20260510080507 | 68 | 178 | 1.7 | 2.6 | 0.00 | 0.10 | 0.00 | 96 | 1010.1 |
| 20260510080006 | 68 | 179 | 1.7 | 4.3 | 0.00 | 0.10 | 0.00 | 98 | 1010.1 |
| 20260510075505 | 69 | 163 | 1.7 | 2.6 | 0.00 | 0.10 | 0.00 | 96 | 1010.2 |
| 20260510075005 | 68 | 163 | 0.9 | 1.7 | 0.00 | 0.10 | 0.00 | 96 | 1010.2 |
| 20260510074505 | 68 | 163 | 0.0 | 1.7 | 0.00 | 0.10 | 0.00 | 96 | 1010.3 |
| 20260510074006 | 69 | 163 | 0.9 | 2.6 | 0.00 | 0.10 | 0.00 | 96 | 1010.2 |
| 20260510073505 | 69 | 164 | 2.6 | 4.3 | 0.00 | 0.10 | 0.00 | 96 | 1010.2 |
| 20260510073005 | 68 | 95 | 1.7 | 1.7 | 0.00 | 0.10 | 0.00 | 96 | 1010.3 |
| 20260510072505 | 69 | 95 | 0.9 | 2.6 | 0.00 | 0.10 | 0.00 | 96 | 1010.3 |
| 20260510072005 | 69 | 95 | 2.6 | 2.6 | 0.00 | 0.10 | 0.00 | 95 | 1010.3 |
| 20260510071006 | 69 | 95 | 4.3 | 4.3 | 0.00 | 0.10 | 0.00 | 95 | 1010.5 |
| 20260510070505 | 69 | 95 | 2.6 | 4.3 | 0.00 | 0.10 | 0.00 | 95 | 1010.5 |
| 20260510070005 | 69 | 81 | 3.5 | 5.2 | 0.00 | 0.10 | 0.00 | 95 | 1010.5 |
| 20260510065504 | 70 | 67 | 3.5 | 4.3 | 0.00 | 0.10 | 0.00 | 95 | 1010.5 |
| 20260510065005 | 70 | 69 | 4.3 | 5.2 | 0.00 | 0.10 | 0.00 | 95 | 1010.6 |
| 20260510064005 | 69 | 61 | 4.3 | 4.3 | 0.00 | 0.10 | 0.00 | 94 | 1010.6 |
| 20260510063505 | 70 | 84 | 1.7 | 2.6 | 0.00 | 0.10 | 0.00 | 94 | 1010.6 |
| 20260510063004 | 70 | 84 | 2.6 | 4.3 | 0.00 | 0.10 | 0.00 | 94 | 1010.6 |
| 20260510062505 | 70 | 84 | 4.3 | 5.2 | 0.00 | 0.10 | 0.00 | 93 | 1010.7 |
| 20260510062004 | 71 | 99 | 4.3 | 6.1 | 0.00 | 0.10 | 0.00 | 93 | 1010.7 |
| 20260510061505 | 70 | 99 | 5.2 | 6.1 | 0.00 | 0.10 | 0.00 | 93 | 1010.8 |
| 20260510061004 | 70 | 85 | 4.3 | 7.0 | 0.00 | 0.10 | 0.00 | 94 | 1010.7 |
| 20260510060504 | 70 | 85 | 4.3 | 5.2 | 0.00 | 0.10 | 0.00 | 94 | 1010.7 |
| 20260510055701 | 70 | 80 | 5.2 | 6.1 | 0.00 | 0.10 | 0.00 | 93 | 1010.7 |
| 20260510055202 | 70 | 99 | 5.2 | 5.2 | 0.00 | 0.10 | 0.00 | 94 | 1010.7 |
| 20260510054701 | 70 | 76 | 4.3 | 6.1 | 0.00 | 0.10 | 0.00 | 94 | 1010.7 |
| 20260510054201 | 70 | 67 | 6.1 | 6.1 | 0.00 | 0.10 | 0.00 | 94 | 1010.8 |
| 20260510053701 | 70 | 78 | 4.3 | 4.3 | 0.00 | 0.10 | 0.00 | 94 | 1010.6 |
| 20260510053200 | 70 | 84 | 2.6 | 2.6 | 0.00 | 0.10 | 0.00 | 94 | 1010.6 |
| 20260510052701 | 70 | 84 | 1.7 | 2.6 | 0.00 | 0.10 | 0.00 | 94 | 1010.5 |
| 20260510052201 | 70 | 84 | 4.3 | 4.3 | 0.00 | 0.10 | 0.00 | 93 | 1010.5 |
| 20260510051701 | 70 | 85 | 4.3 | 6.1 | 0.00 | 0.10 | 0.00 | 93 | 1010.5 |
| 20260510051200 | 70 | 88 | 5.2 | 6.1 | 0.00 | 0.10 | 0.00 | 92 | 1010.5 |
| 20260510050700 | 71 | 92 | 5.2 | 6.1 | 0.00 | 0.10 | 0.00 | 91 | 1010.4 |
| 20260510050201 | 71 | 99 | 5.2 | 6.1 | 0.00 | 0.10 | 0.00 | 91 | 1010.4 |
| 20260510045700 | 71 | 97 | 5.2 | 6.1 | 0.00 | 0.10 | 0.10 | 92 | 1010.4 |
| 20260510045201 | 71 | 83 | 5.2 | 6.1 | 0.00 | 0.10 | 0.10 | 91 | 1010.2 |
| 20260510043700 | 72 | 190 | 2.6 | 5.2 | 0.00 | 0.10 | 0.10 | 87 | 1009.8 |
| 20260510043200 | 72 | 182 | 2.6 | 5.2 | 0.00 | 0.10 | 0.10 | 87 | 1009.8 |
| 20260510042701 | 72 | 176 | 2.6 | 5.2 | 0.00 | 0.10 | 0.10 | 88 | 1009.8 |
| 20260510042201 | 72 | 175 | 2.6 | 5.2 | 0.00 | 0.10 | 0.10 | 87 | 1009.8 |
| 20260510041200 | 72 | 151 | 3.5 | 5.2 | 0.00 | 0.10 | 0.10 | 86 | 1009.8 |
| 20260510040700 | 72 | 160 | 3.5 | 6.1 | 0.00 | 0.10 | 0.10 | 85 | 1009.8 |
| 20260510040159 | 73 | 126 | 2.6 | 5.2 | 0.00 | 0.10 | 0.10 | 85 | 1009.8 |
| 20260510035659 | 73 | 132 | 4.3 | 6.1 | 0.00 | 0.10 | 0.10 | 85 | 1009.9 |
| 20260510034659 | 73 | 132 | 5.2 | 7.0 | 0.00 | 0.10 | 0.10 | 84 | 1009.7 |
| 20260510034159 | 73 | 123 | 4.3 | 6.1 | 0.00 | 0.10 | 0.10 | 82 | 1009.6 |
| 20260510033659 | 73 | 131 | 5.2 | 7.0 | 0.00 | 0.10 | 0.10 | 82 | 1009.5 |
| 20260510032659 | 73 | 110 | 5.2 | 7.0 | 0.00 | 0.10 | 0.10 | 82 | 1009.6 |
| 20260510032200 | 73 | 105 | 5.2 | 6.1 | 0.00 | 0.10 | 0.10 | 84 | 1009.5 |
| 20260510031659 | 73 | 114 | 3.5 | 5.2 | 0.00 | 0.10 | 0.10 | 82 | 1009.5 |
| 20260510030659 | 72 | 104 | 4.3 | 5.2 | 0.00 | 0.10 | 0.10 | 87 | 1009.3 |
| 20260510025659 | 74 | 117 | 0.9 | 2.6 | 0.00 | 0.10 | 0.10 | 82 | 1009.2 |
| 20260510025159 | 74 | 109 | 4.3 | 5.2 | 0.00 | 0.10 | 0.10 | 82 | 1009.1 |
| 20260510024659 | 73 | 92 | 4.3 | 5.2 | 0.00 | 0.10 | 0.10 | 84 | 1009.0 |
| 20260510024159 | 73 | 92 | 4.3 | 6.1 | 0.00 | 0.10 | 0.10 | 85 | 1009.0 |
| 20260510023659 | 73 | 84 | 5.2 | 6.1 | 0.00 | 0.10 | 0.10 | 85 | 1008.9 |
| 20260510023159 | 74 | 93 | 3.5 | 4.3 | 0.00 | 0.10 | 0.10 | 84 | 1008.7 |
| 20260510022658 | 74 | 111 | 1.7 | 4.3 | 0.00 | 0.10 | 0.10 | 83 | 1008.4 |
| 20260510022158 | 75 | 107 | 1.7 | 4.3 | 0.00 | 0.10 | 0.10 | 79 | 1008.3 |
| 20260510021659 | 74 | 107 | 4.3 | 4.3 | 0.00 | 0.10 | 0.10 | 80 | 1008.3 |
| 20260510021159 | 76 | 128 | 1.7 | 4.3 | 0.00 | 0.10 | 0.10 | 78 | 1008.3 |
| 20260510020700 | 77 | 146 | 2.6 | 4.3 | 0.00 | 0.10 | 0.10 | 72 | 1008.1 |
| 20260510020158 | 78 | 169 | 2.6 | 7.0 | 0.00 | 0.10 | 0.10 | 72 | 1007.9 |
| 20260510015658 | 78 | 177 | 4.3 | 7.0 | 0.00 | 0.10 | 0.10 | 72 | 1007.6 |
| 20260510015158 | 78 | 181 | 5.2 | 7.8 | 0.00 | 0.10 | 0.10 | 72 | 1007.6 |
| 20260510014658 | 78 | 172 | 3.5 | 10.4 | 0.00 | 0.10 | 0.10 | 73 | 1007.5 |
| 20260510014158 | 78 | 177 | 5.2 | 10.4 | 0.00 | 0.10 | 0.10 | 75 | 1007.4 |
| 20260510013658 | 78 | 179 | 5.2 | 7.8 | 0.00 | 0.10 | 0.10 | 75 | 1007.7 |
| 20260510013159 | 78 | 168 | 4.3 | 7.0 | 0.00 | 0.10 | 0.10 | 73 | 1007.8 |
| 20260510012657 | 79 | 176 | 5.2 | 8.7 | 0.00 | 0.10 | 0.10 | 73 | 1007.7 |
| 20260510012158 | 79 | 166 | 5.2 | 7.8 | 0.00 | 0.10 | 0.10 | 71 | 1007.8 |
| 20260510011657 | 80 | 161 | 6.1 | 10.4 | 0.00 | 0.10 | 0.10 | 71 | 1007.9 |
| 20260510011158 | 80 | 142 | 7.0 | 8.7 | 0.00 | 0.10 | 0.10 | 71 | 1008.0 |
| 20260510010658 | 80 | 136 | 6.1 | 7.8 | 0.00 | 0.10 | 0.10 | 71 | 1008.1 |
| 20260510010158 | 81 | 148 | 4.3 | 6.1 | 0.00 | 0.10 | 0.10 | 71 | 1008.1 |
| 20260510005657 | 81 | 141 | 4.3 | 6.1 | 0.00 | 0.10 | 0.10 | 70 | 1008.1 |
| 20260510004657 | 82 | 153 | 4.3 | 7.8 | 0.00 | 0.10 | 0.10 | 69 | 1007.9 |
| 20260510004158 | 82 | 151 | 3.5 | 7.0 | 0.00 | 0.10 | 0.10 | 69 | 1007.8 |
| 20260510003658 | 83 | 151 | 4.3 | 6.1 | 0.00 | 0.10 | 0.10 | 69 | 1007.7 |
| 20260510003157 | 83 | 148 | 2.6 | 7.0 | 0.00 | 0.10 | 0.10 | 68 | 1007.8 |
| 20260510002157 | 84 | 141 | 7.0 | 10.4 | 0.00 | 0.10 | 0.10 | 63 | 1007.9 |
| 20260510001657 | 85 | 140 | 8.7 | 11.3 | 0.00 | 0.10 | 0.10 | 62 | 1007.7 |
| 20260510001157 | 85 | 137 | 7.8 | 12.2 | 0.00 | 0.10 | 0.10 | 60 | 1007.6 |
| 20260510000658 | 86 | 136 | 7.8 | 12.2 | 0.00 | 0.10 | 0.10 | 59 | 1007.4 |
| 20260510000157 | 87 | 134 | 8.7 | 11.3 | 0.00 | 0.10 | 0.10 | 57 | 1007.2 |
| 20260509235657 | 88 | 139 | 7.0 | 10.4 | 0.00 | 0.10 | 0.10 | 57 | 1007.3 |
| 20260509235156 | 88 | 145 | 6.1 | 8.7 | 0.00 | 0.10 | 0.10 | 56 | 1007.2 |
| 20260509234656 | 88 | 141 | 6.1 | 8.7 | 0.00 | 0.10 | 0.10 | 55 | 1007.1 |
| 20260509234156 | 89 | 144 | 5.2 | 8.7 | 0.00 | 0.10 | 0.10 | 54 | 1007.2 |
| 20260509233658 | 89 | 148 | 5.2 | 10.4 | 0.00 | 0.10 | 0.10 | 54 | 1007.3 |
| 20260509233157 | 89 | 148 | 6.1 | 8.7 | 0.00 | 0.10 | 0.10 | 54 | 1007.2 |
| 20260509232656 | 90 | 149 | 3.5 | 6.1 | 0.00 | 0.10 | 0.10 | 50 | 1007.2 |
| 20260509232156 | 90 | 157 | 2.6 | 6.1 | 0.00 | 0.10 | 0.10 | 49 | 1007.1 |
| 20260509231656 | 91 | 141 | 5.2 | 7.8 | 0.00 | 0.10 | 0.10 | 48 | 1007.1 |
| 20260509231156 | 90 | 147 | 2.6 | 6.1 | 0.00 | 0.10 | 0.10 | 49 | 1007.1 |
| 20260509230656 | 90 | 135 | 2.6 | 7.0 | 0.00 | 0.10 | 0.10 | 51 | 1007.1 |
| 20260509230157 | 90 | 182 | 2.6 | 5.2 | 0.00 | 0.10 | 0.10 | 49 | 1007.1 |
| 20260509225656 | 90 | 173 | 3.5 | 6.1 | 0.00 | 0.10 | 0.10 | 47 | 1007.1 |
| 20260509225157 | 91 | 135 | 4.3 | 6.1 | 0.00 | 0.10 | 0.10 | 47 | 1007.1 |
| 20260509224655 | 91 | 134 | 5.2 | 7.8 | 0.00 | 0.10 | 0.10 | 47 | 1007.1 |
| 20260509224156 | 91 | 148 | 3.5 | 7.0 | 0.00 | 0.10 | 0.10 | 49 | 1007.1 |
| 20260509223156 | 91 | 116 | 5.2 | 7.0 | 0.00 | 0.10 | 0.10 | 47 | 1007.3 |
| 20260509222656 | 91 | 138 | 4.3 | 6.1 | 0.00 | 0.10 | 0.10 | 48 | 1007.3 |
| 20260509222155 | 91 | 62 | 3.5 | 5.2 | 0.00 | 0.10 | 0.10 | 47 | 1007.2 |
| 20260509221657 | 90 | 132 | 2.6 | 5.2 | 0.00 | 0.10 | 0.10 | 46 | 1007.2 |
| 20260509221155 | 91 | 131 | 4.3 | 6.1 | 0.00 | 0.10 | 0.10 | 47 | 1007.2 |
| 20260509220655 | 93 | 139 | 0.9 | 2.6 | 0.00 | 0.10 | 0.10 | 47 | 1007.1 |
| 20260509220156 | 91 | 214 | 0.9 | 4.3 | 0.00 | 0.10 | 0.10 | 47 | 1007.2 |
| 20260509215656 | 91 | 227 | 1.7 | 5.2 | 0.00 | 0.10 | 0.10 | 51 | 1007.3 |
| 20260509215155 | 91 | 202 | 1.7 | 6.1 | 0.00 | 0.10 | 0.10 | 47 | 1007.3 |
| 20260509214655 | 90 | 144 | 3.5 | 6.1 | 0.00 | 0.10 | 0.10 | 47 | 1007.3 |
| 20260509214155 | 91 | 181 | 4.3 | 6.1 | 0.00 | 0.10 | 0.10 | 50 | 1007.2 |
| 20260509213655 | 90 | 149 | 4.3 | 6.1 | 0.00 | 0.10 | 0.10 | 49 | 1007.2 |
| 20260509213155 | 91 | 161 | 2.6 | 5.2 | 0.00 | 0.10 | 0.10 | 48 | 1007.3 |
| 20260509212655 | 91 | 228 | 3.5 | 5.2 | 0.00 | 0.10 | 0.10 | 49 | 1007.2 |
| 20260509211655 | 91 | 292 | 0.0 | 2.6 | 0.00 | 0.10 | 0.10 | 46 | 1007.3 |
| 20260509211155 | 90 | 265 | 2.6 | 7.0 | 0.00 | 0.10 | 0.10 | 48 | 1007.3 |
| 20260509210654 | 90 | 248 | 2.6 | 6.1 | 0.00 | 0.10 | 0.10 | 47 | 1007.4 |
| 20260509210154 | 91 | 239 | 2.6 | 6.1 | 0.00 | 0.10 | 0.10 | 50 | 1007.4 |
| 20260509205656 | 90 | 246 | 5.2 | 7.0 | 0.00 | 0.10 | 0.10 | 50 | 1007.4 |
| 20260509204155 | 91 | 214 | 2.6 | 7.8 | 0.00 | 0.10 | 0.10 | 48 | 1007.5 |
| 20260509203654 | 91 | 222 | 2.6 | 8.7 | 0.00 | 0.10 | 0.10 | 48 | 1007.6 |
| 20260509203155 | 91 | 265 | 4.3 | 7.8 | 0.00 | 0.10 | 0.10 | 51 | 1007.7 |
| 20260509202154 | 91 | 253 | 5.2 | 7.0 | 0.00 | 0.10 | 0.10 | 48 | 1007.8 |
| 20260509201653 | 91 | 175 | 0.9 | 4.3 | 0.00 | 0.10 | 0.10 | 49 | 1007.8 |
| 20260509201154 | 89 | 231 | 3.5 | 6.1 | 0.00 | 0.10 | 0.10 | 48 | 1007.9 |
| 20260509200655 | 91 | 315 | 5.2 | 6.1 | 0.00 | 0.10 | 0.10 | 49 | 1007.9 |
| 20260509200155 | 90 | 330 | 5.2 | 7.8 | 0.00 | 0.10 | 0.10 | 50 | 1008.0 |
| 20260509195654 | 89 | 302 | 5.2 | 7.8 | 0.00 | 0.10 | 0.10 | 52 | 1008.1 |
| 20260509195153 | 88 | 244 | 0.9 | 7.8 | 0.00 | 0.10 | 0.10 | 50 | 1008.1 |
| 20260509194654 | 89 | 251 | 2.6 | 7.8 | 0.00 | 0.10 | 0.10 | 50 | 1008.2 |
| 20260509194154 | 90 | 230 | 2.6 | 7.0 | 0.00 | 0.10 | 0.10 | 54 | 1008.3 |
| 20260509193654 | 88 | 253 | 3.5 | 6.1 | 0.00 | 0.10 | 0.10 | 53 | 1008.3 |
| 20260509193154 | 89 | 234 | 0.9 | 6.1 | 0.00 | 0.10 | 0.10 | 51 | 1008.4 |
| 20260509192653 | 89 | 199 | 0.9 | 5.2 | 0.00 | 0.10 | 0.10 | 54 | 1008.5 |
| 20260509191654 | 88 | 214 | 1.7 | 5.2 | 0.00 | 0.10 | 0.10 | 54 | 1008.5 |
| 20260509191154 | 88 | 223 | 1.7 | 6.1 | 0.00 | 0.10 | 0.10 | 54 | 1008.7 |
| 20260509190653 | 88 | 241 | 2.6 | 7.8 | 0.00 | 0.10 | 0.10 | 58 | 1008.7 |
| 20260509190154 | 88 | 152 | 2.6 | 6.1 | 0.00 | 0.10 | 0.10 | 58 | 1008.7 |
| 20260509185653 | 88 | 250 | 0.9 | 6.1 | 0.00 | 0.10 | 0.10 | 58 | 1008.7 |
| 20260509185153 | 87 | 263 | 2.6 | 7.0 | 0.00 | 0.10 | 0.10 | 55 | 1008.7 |
| 20260509184652 | 87 | 269 | 0.0 | 4.3 | 0.00 | 0.10 | 0.10 | 56 | 1008.8 |
| 20260509184153 | 87 | 269 | 4.3 | 6.1 | 0.00 | 0.10 | 0.10 | 53 | 1008.9 |
| 20260509183154 | 88 | 244 | 0.9 | 5.2 | 0.00 | 0.10 | 0.10 | 57 | 1009.0 |
| 20260509182653 | 87 | 278 | 0.9 | 10.4 | 0.00 | 0.10 | 0.10 | 56 | 1009.0 |
| 20260509182152 | 88 | 295 | 5.2 | 8.7 | 0.00 | 0.10 | 0.10 | 58 | 1009.0 |
| 20260509180152 | 87 | 315 | 4.3 | 7.0 | 0.00 | 0.10 | 0.10 | 62 | 1009.4 |
| 20260509175653 | 85 | 294 | 5.2 | 10.4 | 0.00 | 0.10 | 0.10 | 61 | 1009.5 |
| 20260509175152 | 86 | 351 | 2.6 | 7.0 | 0.00 | 0.10 | 0.10 | 61 | 1009.5 |
| 20260509174653 | 85 | 335 | 5.2 | 7.8 | 0.00 | 0.10 | 0.10 | 63 | 1009.6 |
| 20260509174152 | 85 | 286 | 5.2 | 10.4 | 0.00 | 0.10 | 0.10 | 64 | 1009.7 |
| 20260509173652 | 85 | 255 | 0.9 | 4.3 | 0.00 | 0.10 | 0.10 | 64 | 1009.7 |
| 20260509173152 | 85 | 76 | 2.6 | 4.3 | 0.00 | 0.10 | 0.10 | 63 | 1009.8 |
| 20260509172652 | 85 | 352 | 2.6 | 6.1 | 0.00 | 0.10 | 0.10 | 63 | 1009.9 |
| 20260509172152 | 86 | 20 | 3.5 | 6.1 | 0.00 | 0.10 | 0.10 | 66 | 1009.9 |
| 20260509171652 | 86 | 281 | 1.7 | 7.0 | 0.00 | 0.10 | 0.10 | 64 | 1010.0 |
| 20260509171154 | 84 | 336 | 2.6 | 6.1 | 0.00 | 0.10 | 0.10 | 64 | 1010.0 |
| 20260509170652 | 84 | 327 | 0.9 | 6.1 | 0.00 | 0.10 | 0.10 | 66 | 1009.8 |
| 20260509165652 | 83 | 353 | 3.5 | 5.2 | 0.00 | 0.10 | 0.10 | 66 | 1009.7 |
| 20260509165152 | 83 | 344 | 3.5 | 7.8 | 0.00 | 0.10 | 0.10 | 66 | 1009.7 |